Time;durP1;ratioP1;P1;durP2;ratioP2;P2;SDS_P1;SDS_P2;PMS_P1;PMS_P2;Temp;Humidity;BMP_temperature;BMP_pressure;BME280_temperature;BME280_humidity;BME280_pressure;Samples;Min_cycle;Max_cycle;Signal;HPM_P1;HPM_P2
2023/01/29 00:02:09;;;;;;;20.85;13.63;;;4.50;99.90;;;;;;5032365;28;20044;-73
2023/01/29 00:04:35;;;;;;;21.02;13.00;;;4.50;99.90;;;;;;5032096;28;20037;-73
2023/01/29 00:07:01;;;;;;;22.40;13.65;;;4.50;99.90;;;;;;5047555;28;20049;-73
2023/01/29 00:09:27;;;;;;;23.45;13.82;;;4.50;99.90;;;;;;5030258;28;20505;-73
2023/01/29 00:11:53;;;;;;;21.00;13.52;;;4.40;99.90;;;;;;5010565;28;20095;-73
2023/01/29 00:14:19;;;;;;;18.63;12.75;;;4.50;99.90;;;;;;5011013;28;20034;-73
2023/01/29 00:16:45;;;;;;;19.92;12.23;;;4.50;99.90;;;;;;5012283;28;20089;-73
2023/01/29 00:19:10;;;;;;;20.98;13.82;;;4.50;99.90;;;;;;5011642;28;20045;-73
2023/01/29 00:21:36;;;;;;;19.77;13.23;;;4.50;99.90;;;;;;5011135;28;20044;-73
2023/01/29 00:24:02;;;;;;;24.50;13.60;;;4.50;99.90;;;;;;5011649;28;20034;-73
2023/01/29 00:26:28;;;;;;;20.10;12.35;;;4.50;99.90;;;;;;5012423;28;20042;-73
2023/01/29 00:28:56;;;;;;;23.73;13.98;;;4.50;99.90;;;;;;5010814;28;20438;-73
2023/01/29 00:31:23;;;;;;;22.02;12.45;;;4.50;99.90;;;;;;5010083;28;20490;-73
2023/01/29 00:33:50;;;;;;;19.08;12.45;;;4.50;99.90;;;;;;5011884;28;20040;-73
2023/01/29 00:36:18;;;;;;;18.90;12.45;;;4.50;99.90;;;;;;5012066;28;20034;-73
2023/01/29 00:38:45;;;;;;;20.83;12.68;;;4.50;99.90;;;;;;5010047;28;20065;-73
2023/01/29 00:46:45;;;;;;;16.30;11.13;;;4.50;99.90;;;;;;5011224;28;20057;-73
2023/01/29 00:49:10;;;;;;;17.63;12.38;;;4.50;99.90;;;;;;5011778;28;20034;-73
2023/01/29 00:51:38;;;;;;;17.10;11.20;;;4.50;99.90;;;;;;5010125;28;20490;-73
2023/01/29 00:54:05;;;;;;;18.63;10.90;;;4.50;99.90;;;;;;5009805;28;20076;-73
2023/01/29 00:56:35;;;;;;;16.58;11.07;;;4.50;99.90;;;;;;5011539;28;20038;-73
2023/01/29 00:59:02;;;;;;;16.38;10.90;;;4.50;99.90;;;;;;5011270;28;20042;-73
2023/01/29 01:04:13;;;;;;;20.67;11.88;;;4.50;99.90;;;;;;5011515;28;20111;-73
2023/01/29 01:06:41;;;;;;;16.13;10.90;;;4.50;99.90;;;;;;5022199;28;20053;-73
2023/01/29 01:11:52;;;;;;;17.80;11.10;;;4.50;99.90;;;;;;5030982;28;20053;-73
2023/01/29 01:14:19;;;;;;;14.30;10.20;;;4.50;99.90;;;;;;5030546;28;20033;-73
2023/01/29 01:16:46;;;;;;;19.05;11.18;;;4.50;99.90;;;;;;5013498;28;20029;-73
2023/01/29 01:19:13;;;;;;;18.85;11.80;;;4.50;99.90;;;;;;5013449;28;20120;-73
2023/01/29 01:21:39;;;;;;;14.70;10.30;;;4.50;99.90;;;;;;5012448;28;20048;-73
2023/01/29 01:24:05;;;;;;;14.05;10.10;;;4.50;99.90;;;;;;5030697;28;20494;-73
2023/01/29 01:26:31;;;;;;;13.40;9.45;;;4.50;99.90;;;;;;5030818;28;20509;-73
2023/01/29 01:28:58;;;;;;;14.52;9.32;;;4.50;99.90;;;;;;5012743;28;20045;-73
2023/01/29 01:31:24;;;;;;;13.80;9.32;;;4.50;99.90;;;;;;5030555;28;20038;-73
2023/01/29 01:33:50;;;;;;;12.00;8.88;;;4.50;99.90;;;;;;5030277;28;20124;-73
2023/01/29 01:36:17;;;;;;;14.93;9.57;;;4.60;99.90;;;;;;5030583;28;20038;-73
2023/01/29 01:38:45;;;;;;;13.80;8.95;;;4.60;99.90;;;;;;5030622;28;20488;-73
2023/01/29 01:41:14;;;;;;;14.40;8.95;;;4.60;99.90;;;;;;4997123;28;20045;-73
2023/01/29 01:43:52;;;;;;;14.00;8.68;;;4.60;99.90;;;;;;5028706;28;20048;-73
2023/01/29 01:46:17;;;;;;;13.27;8.82;;;4.60;99.90;;;;;;5032635;28;20029;-73
2023/01/29 01:48:46;;;;;;;14.95;8.45;;;4.60;99.90;;;;;;5031928;28;20424;-73
2023/01/29 01:51:13;;;;;;;11.93;8.73;;;4.60;99.90;;;;;;5050490;28;20041;-73
2023/01/29 01:53:43;;;;;;;14.20;9.35;;;4.60;99.90;;;;;;5050651;28;20091;-73
2023/01/29 01:56:15;;;;;;;;;;;4.60;99.90;;;;;;5032188;28;20049;-73
2023/01/29 01:58:49;;;;;;;14.93;8.40;;;4.60;99.90;;;;;;5050763;28;19917;-73
2023/01/29 02:01:15;;;;;;;11.50;8.23;;;4.60;99.90;;;;;;5050171;28;20533;-73
2023/01/29 02:09:36;;;;;;;12.95;8.80;;;4.70;99.90;;;;;;5035728;28;20060;-73
2023/01/29 02:12:08;;;;;;;15.30;9.30;;;4.60;99.90;;;;;;5054308;28;20510;-73
2023/01/29 02:14:40;;;;;;;11.93;8.57;;;4.60;99.90;;;;;;5053271;28;20077;-73
2023/01/29 02:17:19;;;;;;;13.52;9.35;;;4.60;99.90;;;;;;5035807;28;20045;-73
2023/01/29 02:19:57;;;;;;;14.45;9.85;;;4.60;99.90;;;;;;5054248;28;20044;-73
2023/01/29 02:22:55;;;;;;;13.95;9.85;;;4.70;99.90;;;;;;5019967;28;20173;-73
2023/01/29 02:25:39;;;;;;;14.45;9.32;;;4.70;99.90;;;;;;5035969;28;20045;-73
2023/01/29 02:28:31;;;;;;;13.82;9.05;;;4.70;99.90;;;;;;5054468;28;20037;-73
2023/01/29 02:31:08;;;;;;;15.32;9.70;;;4.70;99.90;;;;;;5035540;28;20509;-73
2023/01/29 02:33:58;;;;;;;17.52;10.68;;;4.70;99.90;;;;;;5053020;28;20041;-73
2023/01/29 02:36:35;;;;;;;15.73;10.02;;;4.70;99.90;;;;;;5053752;28;20048;-73
2023/01/29 02:39:06;;;;;;;13.60;9.68;;;4.70;99.90;;;;;;5019425;28;20102;-73
2023/01/29 02:41:55;;;;;;;16.30;9.82;;;4.70;99.90;;;;;;5036352;28;20060;-73
2023/01/29 02:44:37;;;;;;;14.73;10.93;;;4.70;99.90;;;;;;5030225;28;20597;-73
2023/01/29 02:47:08;;;;;;;16.98;10.88;;;4.70;99.90;;;;;;5052759;28;20049;-72
2023/01/29 02:49:36;;;;;;;13.02;9.93;;;4.70;99.90;;;;;;5036179;28;20131;-73
2023/01/29 02:52:02;;;;;;;17.90;11.60;;;4.70;99.90;;;;;;5035470;28;20373;-73
2023/01/29 02:54:50;;;;;;;17.00;10.48;;;4.60;99.90;;;;;;5036349;28;20037;-73
2023/01/29 02:57:24;;;;;;;17.25;10.90;;;4.70;99.90;;;;;;5036174;28;20048;-72
2023/01/29 03:00:24;;;;;;;16.17;10.80;;;4.70;99.90;;;;;;5052142;28;20401;-73
2023/01/29 03:02:54;;;;;;;13.68;10.00;;;4.60;99.90;;;;;;5044998;28;20045;-73
2023/01/29 03:05:42;;;;;;;19.17;11.45;;;4.60;99.90;;;;;;5052852;28;20029;-73
2023/01/29 03:08:14;;;;;;;15.23;10.07;;;4.60;99.90;;;;;;5053281;28;20041;-73
2023/01/29 03:10:55;;;;;;;18.92;12.02;;;4.60;99.90;;;;;;5053199;28;20056;-73
2023/01/29 03:13:27;;;;;;;16.48;10.52;;;4.60;99.90;;;;;;5052794;28;20045;-73
2023/01/29 03:16:05;;;;;;;14.50;10.65;;;4.60;99.90;;;;;;5035748;28;20371;-73
2023/01/29 03:18:36;;;;;;;17.27;11.82;;;4.60;99.90;;;;;;5053493;28;20447;-73
2023/01/29 03:32:25;;;;;;;21.05;12.55;;;4.60;99.90;;;;;;5035236;28;20109;-73
2023/01/29 03:34:56;;;;;;;20.80;12.98;;;4.60;99.90;;;;;;5052260;28;20123;-73
2023/01/29 03:37:51;;;;;;;19.33;12.55;;;4.60;99.90;;;;;;5052887;28;20113;-73
2023/01/29 03:40:17;;;;;;;20.88;12.85;;;4.60;99.90;;;;;;5043245;28;20045;-73
2023/01/29 03:43:03;;;;;;;20.95;12.65;;;4.60;99.90;;;;;;5052819;28;20429;-73
2023/01/29 03:45:42;;;;;;;23.02;13.55;;;4.70;99.90;;;;;;5044354;28;20089;-73
2023/01/29 03:48:30;;;;;;;20.00;13.52;;;4.60;99.90;;;;;;5034205;28;20041;-73
2023/01/29 03:51:22;;;;;;;20.98;13.80;;;4.60;99.90;;;;;;5034631;28;20049;-72
2023/01/29 03:53:57;;;;;;;20.17;13.23;;;4.60;99.90;;;;;;5051649;28;20055;-73
2023/01/29 03:56:37;;;;;;;19.45;13.82;;;4.60;99.90;;;;;;5035029;28;20044;-73
2023/01/29 03:59:40;;;;;;;23.73;15.35;;;4.60;99.90;;;;;;5052614;28;20045;-73
2023/01/29 04:02:30;;;;;;;24.45;14.13;;;4.60;99.90;;;;;;5009515;28;20070;-73
2023/01/29 04:05:00;;;;;;;20.50;13.70;;;4.60;99.90;;;;;;4994046;28;20763;-73
2023/01/29 04:07:32;;;;;;;20.42;13.63;;;4.60;99.90;;;;;;4993751;28;20053;-73
2023/01/29 04:10:00;;;;;;;22.17;14.05;;;4.60;99.90;;;;;;5009712;28;20038;-72
2023/01/29 04:12:38;;;;;;;26.95;15.18;;;4.60;99.90;;;;;;4993636;28;20046;-72
2023/01/29 04:15:08;;;;;;;22.08;15.23;;;4.60;99.90;;;;;;4993606;28;20050;-73
2023/01/29 04:17:39;;;;;;;20.23;14.05;;;4.60;99.90;;;;;;4993841;28;20034;-72
2023/01/29 04:20:06;;;;;;;20.08;13.13;;;4.60;99.90;;;;;;5010045;28;20042;-73
2023/01/29 04:22:34;;;;;;;22.05;15.07;;;4.60;99.90;;;;;;4993225;28;20042;-73
2023/01/29 04:25:08;;;;;;;19.48;13.95;;;4.60;99.90;;;;;;4992880;28;20038;-73
2023/01/29 04:27:48;;;;;;;21.23;14.43;;;4.60;99.90;;;;;;4993805;28;20165;-73
2023/01/29 04:30:32;;;;;;;;;;;4.60;99.90;;;;;;4993145;28;20048;-72
2023/01/29 04:33:22;;;;;;;19.40;12.30;;;4.60;99.90;;;;;;5009654;28;20004;-73
2023/01/29 04:35:52;;;;;;;19.38;12.65;;;4.60;99.90;;;;;;5009829;28;20070;-73
2023/01/29 04:38:43;;;;;;;22.13;14.50;;;4.60;99.90;;;;;;5004442;28;20049;-74
2023/01/29 04:41:29;;;;;;;24.90;14.35;;;4.60;99.90;;;;;;5009597;28;20050;-73
2023/01/29 04:44:02;;;;;;;24.33;15.48;;;4.60;99.90;;;;;;5009192;28;20089;-73
2023/01/29 04:46:46;;;;;;;25.70;16.83;;;4.60;99.90;;;;;;4993307;28;20092;-73
2023/01/29 04:49:22;;;;;;;27.77;17.92;;;4.70;99.90;;;;;;4993093;28;20157;-73
2023/01/29 04:52:23;;;;;;;29.13;17.50;;;4.70;99.90;;;;;;4992432;28;20046;-73
2023/01/29 04:55:02;;;;;;;25.30;15.82;;;4.70;99.90;;;;;;5006036;28;20415;-73
2023/01/29 04:57:39;;;;;;;20.77;14.60;;;4.70;99.90;;;;;;5009069;28;20069;-73
2023/01/29 05:00:11;;;;;;;28.55;16.13;;;4.70;99.90;;;;;;4992989;28;20038;-72
2023/01/29 05:02:40;;;;;;;23.38;16.23;;;4.70;99.90;;;;;;5009496;28;20057;-73
2023/01/29 05:05:08;;;;;;;22.83;15.57;;;4.70;99.90;;;;;;5008733;28;20108;-73
2023/01/29 05:07:37;;;;;;;23.70;16.83;;;4.70;99.90;;;;;;5009146;28;20542;-73
2023/01/29 05:10:06;;;;;;;22.98;15.18;;;4.70;99.90;;;;;;4992821;28;20037;-73
2023/01/29 05:12:33;;;;;;;23.60;16.67;;;4.70;99.90;;;;;;5008674;28;20075;-73
2023/01/29 05:15:02;;;;;;;28.08;17.58;;;4.70;99.90;;;;;;4992789;28;20080;-73
2023/01/29 05:17:28;;;;;;;25.55;16.77;;;4.70;99.90;;;;;;5002672;28;20045;-73
2023/01/29 05:19:55;;;;;;;27.73;17.48;;;4.60;99.90;;;;;;5049487;28;20061;-73
2023/01/29 05:22:22;;;;;;;25.85;18.27;;;4.60;99.90;;;;;;5049800;28;20133;-73
2023/01/29 05:24:51;;;;;;;27.40;16.63;;;4.60;99.90;;;;;;5033032;28;20041;-73
2023/01/29 05:30:10;;;;;;;27.40;17.48;;;4.60;99.90;;;;;;5051062;28;20106;-73
2023/01/29 05:32:36;;;;;;;28.13;16.90;;;4.60;99.90;;;;;;5032409;28;20128;-73
2023/01/29 05:35:02;;;;;;;23.88;17.60;;;4.60;99.90;;;;;;5033314;28;20205;-73
2023/01/29 05:37:27;;;;;;;24.83;17.70;;;4.60;99.90;;;;;;5049939;28;20555;-73
2023/01/29 05:39:53;;;;;;;23.30;18.30;;;4.60;99.90;;;;;;5050293;28;20041;-73
2023/01/29 05:42:19;;;;;;;28.90;18.95;;;4.60;99.90;;;;;;5032945;28;20048;-73
2023/01/29 05:44:45;;;;;;;25.67;18.83;;;4.60;99.90;;;;;;5032933;28;20060;-73
2023/01/29 05:47:11;;;;;;;25.20;18.73;;;4.60;99.90;;;;;;5050342;28;20047;-73
2023/01/29 05:49:37;;;;;;;26.45;19.92;;;4.60;99.90;;;;;;5049606;28;20566;-73
2023/01/29 05:52:02;;;;;;;26.98;18.85;;;4.60;99.90;;;;;;5032878;28;20385;-73
2023/01/29 05:54:28;;;;;;;25.10;18.35;;;4.60;99.90;;;;;;5032358;28;20601;-73
2023/01/29 05:56:54;;;;;;;26.17;19.35;;;4.50;99.90;;;;;;5050893;28;20167;-73
2023/01/29 05:59:20;;;;;;;25.48;18.38;;;4.50;99.90;;;;;;5050985;28;20065;-73
2023/01/29 06:01:45;;;;;;;28.35;19.88;;;4.50;99.90;;;;;;5032192;28;20052;-73
2023/01/29 06:04:11;;;;;;;26.83;19.83;;;4.50;99.90;;;;;;5049664;28;20040;-73
2023/01/29 06:06:37;;;;;;;26.83;19.20;;;4.50;99.90;;;;;;5049259;28;20053;-73
2023/01/29 06:09:03;;;;;;;35.33;23.10;;;4.50;99.90;;;;;;5050147;28;20037;-73
2023/01/29 06:11:28;;;;;;;30.50;21.98;;;4.50;99.90;;;;;;5032610;28;20162;-73
2023/01/29 06:13:54;;;;;;;30.85;21.60;;;4.50;99.90;;;;;;5032077;28;20037;-72
2023/01/29 06:16:20;;;;;;;32.08;22.25;;;4.50;99.90;;;;;;5032676;28;20132;-72
2023/01/29 06:18:46;;;;;;;34.13;24.10;;;4.50;99.90;;;;;;5032711;28;20377;-72
2023/01/29 06:21:12;;;;;;;37.65;24.85;;;4.40;99.90;;;;;;5049770;28;20053;-74
2023/01/29 06:23:39;;;;;;;35.75;23.88;;;4.40;99.90;;;;;;5033737;28;20040;-74
2023/01/29 06:26:11;;;;;;;34.17;24.85;;;4.40;99.90;;;;;;5033856;28;20076;-74
2023/01/29 06:28:37;;;;;;;37.13;25.20;;;4.40;99.90;;;;;;5032562;28;20037;-74
2023/01/29 06:31:04;;;;;;;33.30;24.30;;;4.40;99.90;;;;;;5033029;28;20056;-75
2023/01/29 06:33:30;;;;;;;36.13;25.77;;;4.40;99.90;;;;;;5032691;28;20037;-74
2023/01/29 06:35:57;;;;;;;36.45;25.50;;;4.40;99.90;;;;;;5050273;28;20112;-74
2023/01/29 06:38:24;;;;;;;38.17;26.48;;;4.30;99.90;;;;;;5033542;28;20052;-74
2023/01/29 06:40:50;;;;;;;41.90;27.67;;;4.30;99.90;;;;;;5051064;28;20036;-75
2023/01/29 06:43:16;;;;;;;37.17;26.90;;;4.30;99.90;;;;;;5033174;28;20107;-74
2023/01/29 06:45:47;;;;;;;37.90;26.42;;;4.30;99.90;;;;;;5033474;28;20088;-75
2023/01/29 06:48:13;;;;;;;36.60;28.13;;;4.30;99.90;;;;;;5051514;28;20045;-74
2023/01/29 06:50:38;;;;;;;39.72;27.70;;;4.30;99.90;;;;;;5053899;28;20045;-75
2023/01/29 06:53:04;;;;;;;37.90;28.92;;;4.30;99.90;;;;;;5054716;28;20037;-75
2023/01/29 06:55:30;;;;;;;40.53;28.02;;;4.30;99.90;;;;;;5053477;28;20124;-75
2023/01/29 06:57:56;;;;;;;43.20;28.38;;;4.30;99.90;;;;;;5052929;28;20041;-74
2023/01/29 07:00:21;;;;;;;37.92;27.83;;;4.30;99.90;;;;;;5037061;28;20388;-74
2023/01/29 07:02:50;;;;;;;39.80;28.67;;;4.30;99.90;;;;;;5036586;28;20485;-74
2023/01/29 07:05:16;;;;;;;38.03;27.98;;;4.20;99.90;;;;;;5019478;28;20049;-74
2023/01/29 07:07:42;;;;;;;39.67;27.83;;;4.20;99.90;;;;;;5020028;28;20047;-75
2023/01/29 07:10:08;;;;;;;39.67;27.63;;;4.30;99.90;;;;;;5052436;28;20044;-74
2023/01/29 07:12:34;;;;;;;40.17;28.60;;;4.30;99.90;;;;;;5054487;28;20036;-74
2023/01/29 07:15:00;;;;;;;38.17;28.23;;;4.30;99.90;;;;;;5036464;28;20545;-74
2023/01/29 07:17:25;;;;;;;40.42;27.63;;;4.30;99.90;;;;;;5036203;28;20461;-75
2023/01/29 07:19:51;;;;;;;38.72;26.65;;;4.30;99.90;;;;;;5036008;28;20091;-74
2023/01/29 07:22:17;;;;;;;42.40;28.20;;;4.30;99.90;;;;;;5053180;28;20032;-75
2023/01/29 07:24:42;;;;;;;40.85;27.80;;;4.30;99.90;;;;;;5036021;28;20794;-75
2023/01/29 07:27:08;;;;;;;35.92;26.77;;;4.30;99.90;;;;;;5052842;28;20500;-74
2023/01/29 07:29:34;;;;;;;36.72;25.88;;;4.30;99.90;;;;;;5053730;28;20094;-75
2023/01/29 07:32:00;;;;;;;39.20;25.85;;;4.30;99.90;;;;;;5051748;28;20049;-74
2023/01/29 07:34:25;;;;;;;41.17;27.80;;;4.30;99.90;;;;;;5053849;28;20052;-74
2023/01/29 07:36:55;;;;;;;34.90;25.55;;;4.30;99.90;;;;;;5054119;28;20045;-75
2023/01/29 07:39:22;;;;;;;42.00;26.52;;;4.40;99.90;;;;;;5035841;28;20045;-74
2023/01/29 07:41:48;;;;;;;37.40;26.88;;;4.40;99.90;;;;;;5035538;28;20082;-75
2023/01/29 07:44:15;;;;;;;38.03;25.70;;;4.40;99.90;;;;;;5035086;28;20087;-75
2023/01/29 07:46:40;;;;;;;41.45;27.63;;;4.40;99.90;;;;;;5053059;28;20049;-74
2023/01/29 07:49:06;;;;;;;38.80;26.15;;;4.40;99.90;;;;;;5053612;28;20163;-74
2023/01/29 07:51:32;;;;;;;36.47;25.65;;;4.40;99.90;;;;;;5053066;28;20056;-76
2023/01/29 07:53:57;;;;;;;38.45;25.20;;;4.40;99.90;;;;;;5051528;28;20041;-76
2023/01/29 07:56:23;;;;;;;38.25;25.58;;;4.40;99.90;;;;;;5035204;28;20041;-75
2023/01/29 07:58:49;;;;;;;35.75;25.27;;;4.40;99.90;;;;;;5053035;28;20175;-76
2023/01/29 08:01:15;;;;;;;38.70;25.90;;;4.40;99.90;;;;;;5051666;28;20116;-76
2023/01/29 08:03:40;;;;;;;42.05;26.40;;;4.40;99.90;;;;;;5051538;28;20044;-76
2023/01/29 08:06:06;;;;;;;39.28;25.13;;;4.40;99.90;;;;;;5014689;28;20065;-77
2023/01/29 08:08:32;;;;;;;39.25;26.38;;;4.40;99.90;;;;;;5033224;28;20052;-76
2023/01/29 08:11:04;;;;;;;37.83;25.65;;;4.40;99.90;;;;;;5032626;28;20072;-77
2023/01/29 08:13:30;;;;;;;44.17;26.73;;;4.50;99.90;;;;;;5032099;28;20041;-77
2023/01/29 08:16:01;;;;;;;43.45;27.83;;;4.50;99.90;;;;;;5032587;28;20478;-76
2023/01/29 08:18:27;;;;;;;40.33;26.77;;;4.50;99.90;;;;;;5031925;28;20131;-76
2023/01/29 08:20:58;;;;;;;37.85;24.88;;;4.50;99.90;;;;;;5030639;28;20045;-77
2023/01/29 08:23:24;;;;;;;42.83;27.10;;;4.50;99.90;;;;;;5032725;28;20116;-76
2023/01/29 08:25:50;;;;;;;38.03;25.35;;;4.50;99.90;;;;;;5030902;28;20104;-76
2023/01/29 08:28:16;;;;;;;40.15;27.02;;;4.60;99.90;;;;;;5031656;28;20103;-76
2023/01/29 08:30:42;;;;;;;40.00;25.85;;;4.60;99.90;;;;;;5031067;28;20045;-74
2023/01/29 08:33:09;;;;;;;40.60;25.35;;;4.60;99.90;;;;;;5047857;28;20084;-76
2023/01/29 08:35:35;;;;;;;45.40;26.77;;;4.60;99.90;;;;;;5031683;28;20117;-76
2023/01/29 08:38:02;;;;;;;37.65;23.75;;;4.60;99.90;;;;;;5032340;28;20045;-75
2023/01/29 08:40:30;;;;;;;39.88;25.88;;;4.60;99.90;;;;;;5032114;28;20107;-77
2023/01/29 08:43:04;;;;;;;39.17;26.88;;;4.70;99.90;;;;;;5030603;28;20060;-77
2023/01/29 08:45:33;;;;;;;35.58;22.17;;;4.70;99.90;;;;;;5032826;28;20053;-76
2023/01/29 08:47:59;;;;;;;39.95;27.10;;;4.70;99.90;;;;;;5030481;28;20405;-77
2023/01/29 08:50:24;;;;;;;40.60;26.63;;;4.70;99.90;;;;;;5012265;28;20121;-76
2023/01/29 08:52:51;;;;;;;33.05;19.15;;;4.70;99.90;;;;;;5011295;28;20045;-76
2023/01/29 08:55:16;;;;;;;40.40;26.77;;;4.70;99.90;;;;;;4993982;28;20038;-76
2023/01/29 08:57:42;;;;;;;40.85;25.13;;;4.70;99.90;;;;;;5011934;28;20042;-76
2023/01/29 09:00:09;;;;;;;41.03;25.77;;;4.70;99.90;;;;;;5011125;28;20045;-77
2023/01/29 09:02:35;;;;;;;38.75;26.17;;;4.70;99.90;;;;;;4993768;28;20486;-75
2023/01/29 09:05:01;;;;;;;40.35;26.30;;;4.70;99.90;;;;;;4994782;28;20092;-76
2023/01/29 09:07:28;;;;;;;39.35;25.48;;;4.80;99.90;;;;;;5029964;28;20417;-76
2023/01/29 09:09:54;;;;;;;44.47;26.88;;;4.80;99.90;;;;;;5013938;28;20124;-75
2023/01/29 09:12:20;;;;;;;43.22;25.60;;;4.80;99.90;;;;;;5014103;28;20542;-75
2023/01/29 09:14:46;;;;;;;39.03;24.80;;;4.80;99.90;;;;;;5032154;28;20048;-76
2023/01/29 09:17:11;;;;;;;43.95;26.13;;;4.80;99.90;;;;;;5013959;28;20037;-75
2023/01/29 09:19:37;;;;;;;40.28;25.50;;;4.80;99.90;;;;;;5031848;28;20041;-75
2023/01/29 09:22:03;;;;;;;38.35;24.88;;;4.80;99.90;;;;;;5031439;28;20045;-75
2023/01/29 09:24:29;;;;;;;38.10;24.02;;;4.80;99.90;;;;;;5013568;28;20225;-75
2023/01/29 09:26:54;;;;;;;36.60;23.95;;;4.90;99.90;;;;;;5013973;28;20037;-76
2023/01/29 09:29:20;;;;;;;40.03;24.85;;;4.90;99.90;;;;;;4997304;28;20049;-75
2023/01/29 09:31:46;;;;;;;40.58;26.45;;;4.90;99.90;;;;;;5030663;28;20107;-76
2023/01/29 09:34:11;;;;;;;40.35;26.33;;;4.90;99.90;;;;;;5031813;28;20517;-76
2023/01/29 09:36:37;;;;;;;39.45;25.00;;;5.00;99.90;;;;;;5031055;28;20382;-76
2023/01/29 09:39:03;;;;;;;39.17;24.90;;;5.00;99.90;;;;;;5030653;28;20075;-75
2023/01/29 09:41:29;;;;;;;44.90;25.92;;;5.00;99.90;;;;;;5031150;28;20052;-75
2023/01/29 09:44:00;;;;;;;46.22;29.42;;;5.00;99.90;;;;;;5030567;28;20079;-77
2023/01/29 09:46:39;;;;;;;42.95;27.13;;;5.00;99.90;;;;;;5013450;28;20418;-77
2023/01/29 09:49:25;;;;;;;41.35;25.88;;;5.00;99.90;;;;;;5013468;28;20053;-77
2023/01/29 09:52:29;;;;;;;42.90;25.75;;;5.00;99.90;;;;;;5030479;28;20038;-77
2023/01/29 09:55:28;;;;;;;43.53;27.27;;;5.00;99.90;;;;;;5005046;28;20042;-72
2023/01/29 09:57:58;;;;;;;45.13;26.23;;;5.00;99.90;;;;;;4996347;28;20041;-73
2023/01/29 10:00:28;;;;;;;45.95;27.98;;;5.00;99.90;;;;;;5013089;28;20282;-73
2023/01/29 10:03:31;;;;;;;46.55;27.80;;;4.90;99.90;;;;;;5030357;28;20045;-75
2023/01/29 10:06:18;;;;;;;46.70;27.70;;;4.90;99.90;;;;;;5011955;28;20054;-74
2023/01/29 10:08:56;;;;;;;42.85;27.35;;;4.90;99.90;;;;;;5030768;28;20060;-76
2023/01/29 10:11:22;;;;;;;46.20;27.42;;;5.00;99.90;;;;;;5012641;28;20045;-78
2023/01/29 10:14:20;;;;;;;41.45;26.40;;;5.00;99.90;;;;;;5012366;28;20037;-78
2023/01/29 10:16:53;;;;;;;47.75;28.00;;;5.00;99.90;;;;;;4980160;28;20111;-76
2023/01/29 10:19:42;;;;;;;48.67;28.23;;;5.00;99.90;;;;;;5012156;28;20099;-76
2023/01/29 10:22:35;;;;;;;47.15;28.42;;;5.00;99.90;;;;;;5012225;28;20045;-76
2023/01/29 10:25:20;;;;;;;44.10;26.83;;;5.00;99.90;;;;;;5016510;28;20045;-77
2023/01/29 10:27:58;;;;;;;49.25;29.00;;;5.00;99.90;;;;;;5015927;28;20052;-77
2023/01/29 10:30:36;;;;;;;47.15;27.95;;;5.00;99.90;;;;;;5033922;28;20061;-77
2023/01/29 10:33:05;;;;;;;50.42;30.50;;;5.00;99.90;;;;;;5016286;28;20438;-77
2023/01/29 10:35:38;;;;;;;47.47;29.45;;;5.00;99.90;;;;;;5034628;28;20460;-78
2023/01/29 10:38:41;;;;;;;49.75;29.15;;;5.10;99.90;;;;;;5016501;28;20049;-77
2023/01/29 10:41:10;;;;;;;46.47;28.15;;;5.00;99.90;;;;;;4985682;28;20064;-77
2023/01/29 10:43:45;;;;;;;50.33;29.08;;;5.00;99.90;;;;;;5000033;28;20448;-77
2023/01/29 10:46:35;;;;;;;44.13;27.38;;;5.10;99.90;;;;;;5016233;28;20046;-77
2023/01/29 10:49:15;;;;;;;46.63;27.50;;;5.10;99.90;;;;;;5033488;28;20063;-77
2023/01/29 10:52:03;;;;;;;48.05;27.45;;;5.10;99.90;;;;;;4999638;28;20048;-77
2023/01/29 10:54:37;;;;;;;46.08;27.27;;;5.10;99.90;;;;;;5047289;28;20032;-76
2023/01/29 10:57:27;;;;;;;45.25;27.40;;;5.20;99.90;;;;;;5035624;28;20087;-77
2023/01/29 11:00:11;;;;;;;39.95;26.35;;;5.20;99.90;;;;;;5035906;28;20170;-77
2023/01/29 11:02:44;;;;;;;37.83;23.58;;;5.30;99.90;;;;;;5052616;28;20055;-77
2023/01/29 11:05:29;;;;;;;37.17;24.42;;;5.30;99.90;;;;;;5051764;28;20101;-77
2023/01/29 11:08:11;;;;;;;39.25;23.75;;;5.30;99.90;;;;;;5017951;28;20248;-77
2023/01/29 11:10:45;;;;;;;39.65;25.45;;;5.40;99.90;;;;;;5043997;28;20037;-77
2023/01/29 11:13:14;;;;;;;36.53;22.15;;;5.40;99.90;;;;;;5051777;28;20080;-78
2023/01/29 11:15:40;;;;;;;39.75;23.98;;;5.50;99.90;;;;;;5051128;28;20037;-76
2023/01/29 11:18:14;;;;;;;35.22;22.02;;;5.50;99.90;;;;;;5059251;28;20480;-76
2023/01/29 11:20:42;;;;;;;39.08;24.83;;;5.60;99.90;;;;;;5053100;28;20073;-75
2023/01/29 11:23:32;;;;;;;38.58;22.55;;;5.60;99.90;;;;;;5056739;28;20024;-76
2023/01/29 11:25:59;;;;;;;34.58;22.65;;;5.60;99.90;;;;;;5073178;28;20452;-77
2023/01/29 11:28:40;;;;;;;33.58;21.50;;;5.70;99.90;;;;;;5055002;28;20097;-78
2023/01/29 11:31:25;;;;;;;41.15;21.02;;;5.70;99.90;;;;;;5053249;28;20504;-77
2023/01/29 11:34:00;;;;;;;37.08;22.67;;;5.70;99.90;;;;;;5018360;28;20095;-77
2023/01/29 11:36:44;;;;;;;32.17;22.02;;;5.70;99.90;;;;;;5017212;28;20048;-76
2023/01/29 11:39:18;;;;;;;34.10;22.48;;;5.70;99.90;;;;;;5035314;28;20063;-76
2023/01/29 11:41:57;;;;;;;37.75;22.42;;;5.70;99.90;;;;;;5052835;28;20048;-76
2023/01/29 11:44:39;;;;;;;37.40;23.02;;;5.70;99.90;;;;;;5034573;28;20072;-76
2023/01/29 11:47:10;;;;;;;33.33;22.00;;;5.70;99.90;;;;;;5052964;28;20037;-76
2023/01/29 11:49:38;;;;;;;37.70;22.92;;;5.70;99.90;;;;;;5034857;28;20106;-76
2023/01/29 11:52:07;;;;;;;39.60;22.08;;;5.80;99.90;;;;;;5052062;28;20049;-76
2023/01/29 11:54:45;;;;;;;38.03;21.27;;;5.80;99.90;;;;;;5034773;28;20545;-76
2023/01/29 11:57:31;;;;;;;33.45;21.05;;;5.80;99.90;;;;;;5051955;28;20052;-76
2023/01/29 12:00:06;;;;;;;33.97;21.45;;;5.80;99.90;;;;;;5034440;28;20814;-76
2023/01/29 12:02:41;;;;;;;32.92;21.02;;;5.80;99.90;;;;;;5034552;28;20500;-76
2023/01/29 12:05:19;;;;;;;33.78;23.10;;;5.80;99.90;;;;;;5034022;28;20102;-76
2023/01/29 12:07:49;;;;;;;41.45;23.25;;;5.90;99.90;;;;;;5034850;28;20103;-76
2023/01/29 12:10:35;;;;;;;36.40;24.30;;;5.90;99.90;;;;;;5052138;28;20059;-74
2023/01/29 12:13:18;;;;;;;37.47;23.17;;;6.00;99.90;;;;;;5051652;28;20037;-75
2023/01/29 12:15:45;;;;;;;32.45;21.92;;;5.90;99.90;;;;;;5034286;28;20064;-75
2023/01/29 12:18:32;;;;;;;39.03;23.45;;;5.90;99.90;;;;;;5033664;28;20036;-75
2023/01/29 12:21:01;;;;;;;38.55;22.45;;;5.90;99.90;;;;;;5034376;28;20421;-76
2023/01/29 12:23:39;;;;;;;36.10;22.02;;;5.90;99.90;;;;;;5050812;28;20041;-75
2023/01/29 12:26:14;;;;;;;37.65;24.25;;;5.90;99.90;;;;;;5051341;28;20086;-75
2023/01/29 12:28:49;;;;;;;31.65;21.65;;;5.90;99.90;;;;;;5034400;28;20131;-76
2023/01/29 12:31:18;;;;;;;32.38;21.55;;;5.80;99.90;;;;;;5050406;28;20040;-75
2023/01/29 12:33:58;;;;;;;34.40;22.40;;;5.80;99.90;;;;;;5051291;28;20064;-73
2023/01/29 12:36:31;;;;;;;;;;;5.80;99.90;;;;;;5050987;28;20512;-76
2023/01/29 12:38:58;;;;;;;31.02;21.13;;;5.70;99.90;;;;;;5051112;28;20382;-76
2023/01/29 12:41:31;;;;;;;41.58;25.52;;;5.70;99.90;;;;;;5051109;28;20558;-74
2023/01/29 12:44:11;;;;;;;32.97;20.63;;;5.70;99.90;;;;;;5051976;28;20041;-79
2023/01/29 12:46:41;;;;;;;36.25;22.27;;;5.70;99.90;;;;;;5031856;28;20512;-76
2023/01/29 12:49:23;;;;;;;39.38;23.77;;;5.70;99.90;;;;;;5039085;28;20071;-77
2023/01/29 12:52:16;;;;;;;37.13;22.63;;;5.70;99.90;;;;;;5051461;28;20060;-77
2023/01/29 12:54:55;;;;;;;36.53;21.80;;;5.70;99.90;;;;;;5032775;28;20037;-77
2023/01/29 12:57:53;;;;;;;37.83;22.73;;;5.80;99.90;;;;;;5050099;28;20037;-76
2023/01/29 13:00:33;;;;;;;40.35;22.95;;;5.80;99.90;;;;;;5014440;28;20493;-77
2023/01/29 13:02:59;;;;;;;;;;;5.70;99.90;;;;;;5014391;28;20033;-77
2023/01/29 13:05:28;;;;;;;36.15;21.02;;;5.70;99.90;;;;;;5031228;28;20227;-75
2023/01/29 13:08:07;;;;;;;35.65;22.42;;;5.70;99.90;;;;;;4996937;28;20064;-77
2023/01/29 13:10:42;;;;;;;33.60;21.15;;;5.60;99.90;;;;;;5013609;28;20559;-75
2023/01/29 13:13:35;;;;;;;38.95;23.05;;;5.60;99.90;;;;;;5040455;28;20037;-76
2023/01/29 13:16:06;;;;;;;32.90;20.92;;;5.50;99.90;;;;;;5029598;28;20073;-76
2023/01/29 13:18:58;;;;;;;40.95;23.92;;;5.50;99.90;;;;;;5013831;28;20045;-74
2023/01/29 13:21:38;;;;;;;37.20;22.65;;;5.50;99.90;;;;;;5030737;28;20041;-74
2023/01/29 13:24:16;;;;;;;36.75;23.13;;;5.50;99.90;;;;;;5013817;28;20045;-75
2023/01/29 13:26:47;;;;;;;38.60;23.35;;;5.50;99.90;;;;;;5013284;28;20041;-76
2023/01/29 13:29:32;;;;;;;40.38;23.75;;;5.50;99.90;;;;;;5011747;28;20505;-74
2023/01/29 13:32:04;;;;;;;38.13;22.35;;;5.50;99.90;;;;;;5029815;28;20042;-75
2023/01/29 13:34:43;;;;;;;45.55;25.25;;;5.50;99.90;;;;;;5012290;28;20044;-76
2023/01/29 13:37:16;;;;;;;38.40;23.52;;;5.50;99.90;;;;;;5011715;28;20063;-77